Time;durP1;ratioP1;P1;durP2;ratioP2;P2;SDS_P1;SDS_P2;PMS_P1;PMS_P2;Temp;Humidity;BMP_temperature;BMP_pressure;BME280_temperature;BME280_humidity;BME280_pressure;Samples;Min_cycle;Max_cycle;Signal;HPM_P1;HPM_P2
2022/11/01 00:02:22;;;;;;;0.73;0.35;;;;;;;;;;5022989;28;20044;-81
2022/11/01 00:04:48;;;;;;;1.00;0.20;;;;;;;;;;5022019;28;20037;-83
2022/11/01 00:07:14;;;;;;;0.10;0.10;;;;;;;;;;5021925;28;20274;-82
2022/11/01 00:09:40;;;;;;;0.30;0.30;;;;;;;;;;5024574;28;20044;-81
2022/11/01 00:12:07;;;;;;;0.20;0.20;;;;;;;;;;5024018;28;20036;-83
2022/11/01 00:14:33;;;;;;;1.05;0.17;;;;;;;;;;5022952;28;20032;-82
2022/11/01 00:16:59;;;;;;;0.20;0.20;;;;;;;;;;5040510;28;20370;-81
2022/11/01 00:19:26;;;;;;;0.20;0.20;;;;;;;;;;5041479;28;20385;-83
2022/11/01 00:21:52;;;;;;;0.20;0.20;;;;;;;;;;5027333;28;20731;-81
2022/11/01 00:24:18;;;;;;;0.38;0.20;;;;;;;;;;5041195;28;20029;-80
2022/11/01 00:26:44;;;;;;;0.30;0.10;;;;;;;;;;5041870;28;20079;-79
2022/11/01 00:29:11;;;;;;;0.20;0.20;;;;;;;;;;5022994;28;20065;-83
2022/11/01 00:31:38;;;;;;;0.20;0.20;;;;;;;;;;5041660;28;20041;-83
2022/11/01 00:34:05;;;;;;;0.40;0.20;;;;;;;;;;5004969;28;20063;-83
2022/11/01 00:36:35;;;;;;;0.10;0.10;;;;;;;;;;5011107;28;20040;-83
2022/11/01 00:39:02;;;;;;;0.40;0.20;;;;;;;;;;5023857;28;20044;-82
2022/11/01 00:41:28;;;;;;;0.32;0.20;;;;;;;;;;5049616;28;20468;-82
2022/11/01 00:43:54;;;;;;;0.63;0.47;;;;;;;;;;5021382;28;20025;-83
2022/11/01 00:46:20;;;;;;;0.68;0.35;;;;;;;;;;5041119;28;20039;-81
2022/11/01 00:48:46;;;;;;;0.30;0.20;;;;;;;;;;5020618;28;20029;-83
2022/11/01 00:51:13;;;;;;;0.75;0.30;;;;;;;;;;5022591;28;20092;-83
2022/11/01 00:53:39;;;;;;;4.03;0.40;;;;;;;;;;5010666;28;20595;-83
2022/11/01 00:56:06;;;;;;;0.30;0.10;;;;;;;;;;5022660;28;20400;-84
2022/11/01 00:58:32;;;;;;;0.35;0.30;;;;;;;;;;5027344;28;20295;-81
2022/11/01 01:00:59;;;;;;;0.90;0.20;;;;;;;;;;5021029;28;20458;-83
2022/11/01 01:03:25;;;;;;;0.28;0.20;;;;;;;;;;5004945;28;20040;-84
2022/11/01 01:05:52;;;;;;;0.15;0.15;;;;;;;;;;5026989;28;20079;-82
2022/11/01 01:08:19;;;;;;;0.47;0.20;;;;;;;;;;5009871;28;20119;-82
2022/11/01 01:10:45;;;;;;;0.28;0.22;;;;;;;;;;5020489;28;20040;-82
2022/11/01 01:13:11;;;;;;;1.38;0.10;;;;;;;;;;5042129;28;20099;-82
2022/11/01 01:15:38;;;;;;;0.65;0.20;;;;;;;;;;5020018;28;20033;-82
2022/11/01 01:18:04;;;;;;;1.38;0.40;;;;;;;;;;5041579;28;20087;-81
2022/11/01 01:20:31;;;;;;;0.80;0.15;;;;;;;;;;5040621;28;20037;-81
2022/11/01 01:22:57;;;;;;;1.27;0.20;;;;;;;;;;5009838;28;20037;-80
2022/11/01 01:25:23;;;;;;;0.50;0.20;;;;;;;;;;5021762;28;20402;-81
2022/11/01 01:27:50;;;;;;;0.50;0.30;;;;;;;;;;4992409;28;20029;-82
2022/11/01 01:30:16;;;;;;;0.30;0.30;;;;;;;;;;5023337;28;20508;-83
2022/11/01 01:32:43;;;;;;;0.20;0.20;;;;;;;;;;4993684;28;20037;-83
2022/11/01 01:35:09;;;;;;;0.68;0.20;;;;;;;;;;5022784;28;20543;-82
2022/11/01 01:37:35;;;;;;;0.30;0.30;;;;;;;;;;5006506;28;20044;-82
2022/11/01 01:40:02;;;;;;;0.28;0.20;;;;;;;;;;5021441;28;20943;-81
2022/11/01 01:42:31;;;;;;;0.30;0.13;;;;;;;;;;5005603;28;20030;-84
2022/11/01 01:44:57;;;;;;;0.43;0.30;;;;;;;;;;5007947;28;20070;-83
2022/11/01 01:47:26;;;;;;;0.45;0.32;;;;;;;;;;5044769;28;20512;-82
2022/11/01 01:49:59;;;;;;;0.35;0.32;;;;;;;;;;5027924;28;20040;-83
2022/11/01 01:52:28;;;;;;;0.60;0.30;;;;;;;;;;5025647;28;20056;-82
2022/11/01 01:54:54;;;;;;;0.75;0.25;;;;;;;;;;5038937;28;20045;-82
2022/11/01 01:57:20;;;;;;;0.82;0.30;;;;;;;;;;5026599;28;20155;-79
2022/11/01 01:59:47;;;;;;;0.20;0.20;;;;;;;;;;5024710;28;20078;-79
2022/11/01 02:02:13;;;;;;;0.22;0.10;;;;;;;;;;5041471;28;20079;-79
2022/11/01 02:04:42;;;;;;;0.70;0.25;;;;;;;;;;5043720;28;20040;-79
2022/11/01 02:07:08;;;;;;;0.30;0.25;;;;;;;;;;5042943;28;20033;-81
2022/11/01 02:09:35;;;;;;;0.20;0.20;;;;;;;;;;5042833;28;20120;-82
2022/11/01 02:12:02;;;;;;;0.20;0.20;;;;;;;;;;5008672;28;20079;-80
2022/11/01 02:14:29;;;;;;;1.40;0.20;;;;;;;;;;5025098;28;20025;-81
2022/11/01 02:16:55;;;;;;;0.75;0.30;;;;;;;;;;5012411;28;20055;-81
2022/11/01 02:19:33;;;;;;;0.20;0.10;;;;;;;;;;5011897;28;20475;-82
2022/11/01 02:22:18;;;;;;;0.30;0.20;;;;;;;;;;5042143;28;20468;-84
2022/11/01 02:24:45;;;;;;;0.52;0.28;;;;;;;;;;5004195;28;20127;-81
2022/11/01 02:27:13;;;;;;;1.45;0.30;;;;;;;;;;5024685;28;20037;-82
2022/11/01 02:29:42;;;;;;;0.10;0.10;;;;;;;;;;5005916;28;20033;-83
2022/11/01 02:32:14;;;;;;;0.20;0.20;;;;;;;;;;5043990;28;20555;-82
2022/11/01 02:34:46;;;;;;;0.22;0.17;;;;;;;;;;5024018;28;20060;-81
2022/11/01 02:37:23;;;;;;;1.55;0.30;;;;;;;;;;5025588;28;20043;-83
2022/11/01 02:39:52;;;;;;;0.47;0.20;;;;;;;;;;5024663;28;20551;-83
2022/11/01 02:42:21;;;;;;;0.50;0.30;;;;;;;;;;5012896;28;20033;-83
2022/11/01 02:44:58;;;;;;;0.73;0.30;;;;;;;;;;5015440;28;20075;-83
2022/11/01 02:47:25;;;;;;;0.40;0.30;;;;;;;;;;5026719;28;20041;-82
2022/11/01 02:49:53;;;;;;;0.75;0.22;;;;;;;;;;5024261;28;20421;-84
2022/11/01 02:52:22;;;;;;;0.50;0.40;;;;;;;;;;5028863;28;20118;-83
2022/11/01 02:54:52;;;;;;;0.40;0.32;;;;;;;;;;5004114;28;20041;-82
2022/11/01 02:57:28;;;;;;;0.30;0.30;;;;;;;;;;5007994;28;20177;-82
2022/11/01 03:00:12;;;;;;;;;;;;;;;;;;5024641;28;20567;-82
2022/11/01 03:02:40;;;;;;;1.30;0.20;;;;;;;;;;5029315;28;19958;-83
2022/11/01 03:05:13;;;;;;;1.85;0.40;;;;;;;;;;5025488;28;20037;-82
2022/11/01 03:07:42;;;;;;;2.05;0.30;;;;;;;;;;5016615;28;20485;-80
2022/11/01 03:10:09;;;;;;;0.50;0.40;;;;;;;;;;4996240;28;20116;-81
2022/11/01 03:12:40;;;;;;;1.27;0.30;;;;;;;;;;5006971;28;20132;-82
2022/11/01 03:15:19;;;;;;;1.08;0.50;;;;;;;;;;5042168;28;20036;-82
2022/11/01 03:18:08;;;;;;;0.50;0.30;;;;;;;;;;5042102;28;20039;-82
2022/11/01 03:20:47;;;;;;;0.30;0.30;;;;;;;;;;5025907;28;20028;-82
2022/11/01 03:23:20;;;;;;;1.08;0.40;;;;;;;;;;5039072;28;20090;-82
2022/11/01 03:25:50;;;;;;;0.30;0.28;;;;;;;;;;5024882;28;20421;-83
2022/11/01 03:28:24;;;;;;;0.52;0.40;;;;;;;;;;5011438;28;20037;-82
2022/11/01 03:31:07;;;;;;;0.60;0.40;;;;;;;;;;5040561;28;20044;-82
2022/11/01 03:33:37;;;;;;;0.75;0.40;;;;;;;;;;5026987;28;20040;-84
2022/11/01 03:36:06;;;;;;;1.52;0.50;;;;;;;;;;5040172;28;20033;-87
2022/11/01 03:38:35;;;;;;;0.60;0.40;;;;;;;;;;5013095;28;20041;-84
2022/11/01 03:41:03;;;;;;;1.92;0.32;;;;;;;;;;5041013;28;20037;-84
2022/11/01 03:43:30;;;;;;;1.05;0.35;;;;;;;;;;5042126;28;20029;-80
2022/11/01 03:45:56;;;;;;;0.55;0.38;;;;;;;;;;5023228;28;20044;-82
2022/11/01 03:48:23;;;;;;;0.82;0.55;;;;;;;;;;5023846;28;20033;-82
2022/11/01 03:50:51;;;;;;;0.68;0.40;;;;;;;;;;5023676;28;20040;-82
2022/11/01 03:53:17;;;;;;;1.50;0.32;;;;;;;;;;4994888;28;20049;-82
2022/11/01 03:55:43;;;;;;;2.05;0.20;;;;;;;;;;5040566;28;20029;-83
2022/11/01 03:58:09;;;;;;;0.35;0.30;;;;;;;;;;5039605;28;20041;-81
2022/11/01 04:00:38;;;;;;;0.30;0.30;;;;;;;;;;4994555;28;20037;-82
2022/11/01 04:03:04;;;;;;;0.75;0.30;;;;;;;;;;5021223;28;20932;-82
2022/11/01 04:05:31;;;;;;;0.30;0.25;;;;;;;;;;5024807;28;20536;-83
2022/11/01 04:07:58;;;;;;;1.88;0.43;;;;;;;;;;5023912;28;20531;-81
2022/11/01 04:10:25;;;;;;;0.50;0.50;;;;;;;;;;5011369;28;20704;-81
2022/11/01 04:12:52;;;;;;;1.65;0.40;;;;;;;;;;5040119;28;20033;-81
2022/11/01 04:21:06;;;;;;;2.65;0.38;;;;;;;;;;5023994;28;20617;-83
2022/11/01 04:23:33;;;;;;;1.73;0.52;;;;;;;;;;5012267;28;20040;-82
2022/11/01 04:25:59;;;;;;;2.30;0.40;;;;;;;;;;5021874;28;20033;-86
2022/11/01 04:28:26;;;;;;;0.45;0.40;;;;;;;;;;5039223;28;20037;-83
2022/11/01 04:30:52;;;;;;;1.65;0.30;;;;;;;;;;5042531;28;20412;-83
2022/11/01 04:33:18;;;;;;;0.40;0.40;;;;;;;;;;5013214;28;20033;-79
2022/11/01 04:35:44;;;;;;;0.65;0.47;;;;;;;;;;5040263;28;20069;-76
2022/11/01 04:38:11;;;;;;;0.30;0.30;;;;;;;;;;5039221;28;20378;-78
2022/11/01 04:40:38;;;;;;;1.08;0.40;;;;;;;;;;5039705;28;20087;-77
2022/11/01 04:43:04;;;;;;;1.42;0.30;;;;;;;;;;5040400;28;20032;-81
2022/11/01 04:45:30;;;;;;;1.40;0.30;;;;;;;;;;5038668;28;20038;-78
2022/11/01 04:48:05;;;;;;;2.08;0.45;;;;;;;;;;5038782;28;20037;-76
2022/11/01 04:50:33;;;;;;;0.95;0.52;;;;;;;;;;5024857;28;20514;-86
2022/11/01 04:52:59;;;;;;;0.68;0.55;;;;;;;;;;5006592;28;20077;-85
2022/11/01 04:55:26;;;;;;;2.15;0.40;;;;;;;;;;5041351;28;20336;-81
2022/11/01 04:57:52;;;;;;;0.45;0.30;;;;;;;;;;5040203;28;20045;-80
2022/11/01 05:00:18;;;;;;;0.47;0.47;;;;;;;;;;5022203;28;20120;-81
2022/11/01 05:02:45;;;;;;;0.95;0.35;;;;;;;;;;5021376;28;20427;-79
2022/11/01 05:05:11;;;;;;;0.30;0.30;;;;;;;;;;5040280;28;20025;-81
2022/11/01 05:07:38;;;;;;;0.45;0.45;;;;;;;;;;5006304;28;20389;-80
2022/11/01 05:10:04;;;;;;;1.95;0.88;;;;;;;;;;5007431;28;20517;-80
2022/11/01 05:12:31;;;;;;;0.93;0.50;;;;;;;;;;5006359;28;20039;-80
2022/11/01 05:14:57;;;;;;;1.65;0.40;;;;;;;;;;5021077;28;20036;-81
2022/11/01 05:17:23;;;;;;;0.50;0.40;;;;;;;;;;5009884;28;20056;-80
2022/11/01 05:19:50;;;;;;;0.30;0.30;;;;;;;;;;4994880;28;20033;-80
2022/11/01 05:22:16;;;;;;;1.33;0.65;;;;;;;;;;4993485;28;20025;-81
2022/11/01 05:24:43;;;;;;;1.13;0.43;;;;;;;;;;5005829;28;20542;-80
2022/11/01 05:27:09;;;;;;;1.73;0.80;;;;;;;;;;5040306;28;20033;-80
2022/11/01 05:29:35;;;;;;;0.47;0.45;;;;;;;;;;5007359;28;20028;-81
2022/11/01 05:32:02;;;;;;;0.43;0.43;;;;;;;;;;5021108;28;20041;-79
2022/11/01 05:34:28;;;;;;;1.45;0.70;;;;;;;;;;5023763;28;20029;-82
2022/11/01 05:36:54;;;;;;;1.30;0.60;;;;;;;;;;4991136;28;20117;-82
2022/11/01 05:39:21;;;;;;;1.45;0.68;;;;;;;;;;5043140;28;20080;-82
2022/11/01 05:41:47;;;;;;;0.93;0.60;;;;;;;;;;5010187;28;20032;-82
2022/11/01 05:44:13;;;;;;;1.10;0.50;;;;;;;;;;5010535;28;20443;-81
2022/11/01 05:46:39;;;;;;;0.93;0.50;;;;;;;;;;5010864;28;20041;-82
2022/11/01 05:49:05;;;;;;;1.10;0.50;;;;;;;;;;5027699;28;20456;-81
2022/11/01 05:51:32;;;;;;;1.30;0.60;;;;;;;;;;5043077;28;20463;-82
2022/11/01 05:53:58;;;;;;;0.90;0.60;;;;;;;;;;5011042;28;20051;-82
2022/11/01 05:56:24;;;;;;;1.98;0.93;;;;;;;;;;5027568;28;20067;-82
2022/11/01 05:58:50;;;;;;;0.80;0.70;;;;;;;;;;5013057;28;20033;-81
2022/11/01 06:01:17;;;;;;;0.82;0.57;;;;;;;;;;5044996;28;20408;-80
2022/11/01 06:03:43;;;;;;;1.20;0.80;;;;;;;;;;5026311;28;20037;-81
2022/11/01 06:06:10;;;;;;;3.55;1.00;;;;;;;;;;5024512;28;20040;-80
2022/11/01 06:08:37;;;;;;;1.52;0.63;;;;;;;;;;5015031;28;20062;-81
2022/11/01 06:11:04;;;;;;;1.83;0.55;;;;;;;;;;5043090;28;20116;-81
2022/11/01 06:13:31;;;;;;;1.20;0.80;;;;;;;;;;5042668;28;20116;-82
2022/11/01 06:16:01;;;;;;;2.10;0.70;;;;;;;;;;5043343;28;20538;-80
2022/11/01 06:18:27;;;;;;;2.78;0.93;;;;;;;;;;5042031;28;20047;-79
2022/11/01 06:20:53;;;;;;;4.10;1.00;;;;;;;;;;5024974;28;20037;-81
2022/11/01 06:23:20;;;;;;;3.30;0.90;;;;;;;;;;5026189;28;20056;-81
2022/11/01 06:25:46;;;;;;;1.67;1.00;;;;;;;;;;5044112;28;20110;-83
2022/11/01 06:28:12;;;;;;;3.28;1.20;;;;;;;;;;5043629;28;20037;-83
2022/11/01 06:30:39;;;;;;;1.10;1.00;;;;;;;;;;4991407;28;20041;-81
2022/11/01 06:33:05;;;;;;;1.58;0.93;;;;;;;;;;5026402;28;20171;-80
2022/11/01 06:35:32;;;;;;;2.30;1.00;;;;;;;;;;5024006;28;20528;-80
2022/11/01 06:38:02;;;;;;;1.42;1.10;;;;;;;;;;5041947;28;20044;-77
2022/11/01 06:40:29;;;;;;;3.00;1.10;;;;;;;;;;5006657;28;20123;-77
2022/11/01 06:42:59;;;;;;;4.53;1.73;;;;;;;;;;5025445;28;20044;-78
2022/11/01 06:45:26;;;;;;;1.73;0.93;;;;;;;;;;5041144;28;20500;-77
2022/11/01 06:47:52;;;;;;;1.50;1.10;;;;;;;;;;5012379;28;20226;-80
2022/11/01 06:50:18;;;;;;;1.30;0.90;;;;;;;;;;5045529;28;20416;-81
2022/11/01 06:52:44;;;;;;;2.85;0.80;;;;;;;;;;5012398;28;20107;-79
2022/11/01 06:55:10;;;;;;;0.95;0.90;;;;;;;;;;5024746;28;20120;-80
2022/11/01 06:57:37;;;;;;;1.73;0.70;;;;;;;;;;5024469;28;21073;-80
2022/11/01 07:00:12;;;;;;;1.65;0.85;;;;;;;;;;5011178;28;20033;-76
2022/11/01 07:02:38;;;;;;;1.48;0.70;;;;;;;;;;5023810;28;20044;-82
2022/11/01 07:05:05;;;;;;;1.48;0.70;;;;;;;;;;5042264;28;20039;-79
2022/11/01 07:07:31;;;;;;;1.13;0.80;;;;;;;;;;5029069;28;20038;-80
2022/11/01 07:09:57;;;;;;;3.58;0.80;;;;;;;;;;5023704;28;20059;-76
2022/11/01 07:12:23;;;;;;;1.60;0.80;;;;;;;;;;5042191;28;20033;-84
2022/11/01 07:14:50;;;;;;;0.93;0.70;;;;;;;;;;5023922;28;20536;-77
2022/11/01 07:17:16;;;;;;;1.00;0.85;;;;;;;;;;5024657;28;20033;-79
2022/11/01 07:19:42;;;;;;;1.38;0.80;;;;;;;;;;5041737;28;20037;-81
2022/11/01 07:22:08;;;;;;;2.97;0.75;;;;;;;;;;5024125;28;20565;-78
2022/11/01 07:24:35;;;;;;;2.65;1.00;;;;;;;;;;5041826;28;20407;-79
2022/11/01 07:27:01;;;;;;;1.05;0.60;;;;;;;;;;5023210;28;20041;-77
2022/11/01 07:29:27;;;;;;;2.33;0.80;;;;;;;;;;5040395;28;20029;-77
2022/11/01 07:31:53;;;;;;;1.75;0.88;;;;;;;;;;5024729;28;20033;-78
2022/11/01 07:34:19;;;;;;;2.30;0.90;;;;;;;;;;5021288;28;20051;-76
2022/11/01 07:36:46;;;;;;;1.52;0.55;;;;;;;;;;5040477;28;20546;-89
2022/11/01 07:39:13;;;;;;;1.95;0.80;;;;;;;;;;5042391;28;20033;-85
2022/11/01 07:41:40;;;;;;;2.30;0.70;;;;;;;;;;5041786;28;20036;-76
2022/11/01 07:44:06;;;;;;;1.60;0.75;;;;;;;;;;5023035;28;20037;-75
2022/11/01 07:46:32;;;;;;;3.42;1.05;;;;;;;;;;5040606;28;20143;-77
2022/11/01 07:48:59;;;;;;;4.25;1.02;;;;;;;;;;5009975;28;20047;-76
2022/11/01 07:51:25;;;;;;;1.75;1.00;;;;;;;;;;5040033;28;20029;-74
2022/11/01 07:53:51;;;;;;;2.25;1.10;;;;;;;;;;5040101;28;20045;-75
2022/11/01 07:56:18;;;;;;;2.78;0.73;;;;;;;;;;5022338;28;20068;-75
2022/11/01 07:58:44;;;;;;;4.25;0.95;;;;;;;;;;5042158;28;20041;-76
2022/11/01 08:01:10;;;;;;;1.55;1.05;;;;;;;;;;5044408;28;20029;-77
2022/11/01 08:03:37;;;;;;;1.80;0.93;;;;;;;;;;5030758;28;20162;-80
2022/11/01 08:06:03;;;;;;;3.17;0.95;;;;;;;;;;5042718;28;20095;-80
2022/11/01 08:08:30;;;;;;;3.72;1.20;;;;;;;;;;5047713;28;20060;-81
2022/11/01 08:10:59;;;;;;;2.72;1.13;;;;;;;;;;5050861;28;20136;-80
2022/11/01 08:13:25;;;;;;;1.92;0.80;;;;;;;;;;5030182;28;20065;-81
2022/11/01 08:15:52;;;;;;;4.40;0.95;;;;;;;;;;5050822;28;20052;-80
2022/11/01 08:18:23;;;;;;;1.60;1.00;;;;;;;;;;5025113;28;20041;-82
2022/11/01 08:20:49;;;;;;;1.85;1.00;;;;;;;;;;5024673;28;20061;-79
2022/11/01 08:23:16;;;;;;;2.05;0.90;;;;;;;;;;5031930;28;20025;-82
2022/11/01 08:25:42;;;;;;;3.10;1.00;;;;;;;;;;5032267;28;20041;-83
2022/11/01 08:28:10;;;;;;;1.85;0.85;;;;;;;;;;5048506;28;20037;-80
2022/11/01 08:30:37;;;;;;;1.90;0.90;;;;;;;;;;5050118;28;20033;-80
2022/11/01 08:33:04;;;;;;;2.17;0.82;;;;;;;;;;5040825;28;20033;-79
2022/11/01 08:35:30;;;;;;;2.28;0.63;;;;;;;;;;5049514;28;20667;-79
2022/11/01 08:38:02;;;;;;;3.65;0.90;;;;;;;;;;5048704;28;20041;-77
2022/11/01 08:40:28;;;;;;;3.38;0.80;;;;;;;;;;5031127;28;20033;-80
2022/11/01 08:42:55;;;;;;;1.90;1.02;;;;;;;;;;5050315;28;20113;-79
2022/11/01 08:45:21;;;;;;;2.20;0.82;;;;;;;;;;5050151;28;20056;-80
2022/11/01 08:47:47;;;;;;;3.60;0.52;;;;;;;;;;5029323;28;20029;-79
2022/11/01 08:50:15;;;;;;;4.22;0.73;;;;;;;;;;5029552;28;20159;-79
2022/11/01 08:52:42;;;;;;;1.25;0.68;;;;;;;;;;5014263;28;20049;-80
2022/11/01 08:55:10;;;;;;;3.33;0.88;;;;;;;;;;5023966;28;20572;-81
2022/11/01 08:57:36;;;;;;;3.42;0.77;;;;;;;;;;5039621;28;20053;-78
2022/11/01 09:00:03;;;;;;;0.95;0.60;;;;;;;;;;5038902;28;20512;-81
2022/11/01 09:02:30;;;;;;;3.72;1.05;;;;;;;;;;5039366;28;20029;-81
2022/11/01 09:04:56;;;;;;;2.38;0.50;;;;;;;;;;5041639;28;20029;-81
2022/11/01 09:07:22;;;;;;;7.22;0.65;;;;;;;;;;5040812;28;20508;-81
2022/11/01 09:09:48;;;;;;;2.78;0.68;;;;;;;;;;5021616;28;20045;-82
2022/11/01 09:12:14;;;;;;;1.42;0.70;;;;;;;;;;5039812;28;20044;-83
2022/11/01 09:14:41;;;;;;;1.75;0.90;;;;;;;;;;5026272;28;20049;-75
2022/11/01 09:17:07;;;;;;;1.65;0.70;;;;;;;;;;5044434;28;20033;-82
2022/11/01 09:19:33;;;;;;;3.70;0.68;;;;;;;;;;5043608;28;20029;-80
2022/11/01 09:22:00;;;;;;;2.58;0.63;;;;;;;;;;5025949;28;20498;-83
2022/11/01 09:24:26;;;;;;;2.03;0.90;;;;;;;;;;5042910;28;20059;-83
2022/11/01 09:26:52;;;;;;;0.85;0.50;;;;;;;;;;5043658;28;20029;-79
2022/11/01 09:29:20;;;;;;;2.03;0.50;;;;;;;;;;5043419;28;20029;-74
2022/11/01 09:31:50;;;;;;;1.92;0.80;;;;;;;;;;5043865;28;20045;-79
2022/11/01 09:34:16;;;;;;;2.25;0.70;;;;;;;;;;5030151;28;20033;-77
2022/11/01 09:36:42;;;;;;;2.13;0.65;;;;;;;;;;5008360;28;20055;-77
2022/11/01 09:39:09;;;;;;;3.92;0.60;;;;;;;;;;5013456;28;20056;-78
2022/11/01 09:41:41;;;;;;;1.92;0.68;;;;;;;;;;5043074;28;20025;-79
2022/11/01 09:44:13;;;;;;;1.15;0.60;;;;;;;;;;5043235;28;20041;-86
2022/11/01 09:46:43;;;;;;;3.35;0.70;;;;;;;;;;5042805;28;20048;-80
2022/11/01 09:49:11;;;;;;;4.32;0.70;;;;;;;;;;5024409;28;20116;-77
2022/11/01 09:51:38;;;;;;;1.45;0.70;;;;;;;;;;5045390;28;20029;-77
2022/11/01 09:54:07;;;;;;;2.25;0.90;;;;;;;;;;5030243;28;20167;-78
2022/11/01 09:56:36;;;;;;;3.58;0.70;;;;;;;;;;5025835;28;20471;-77
2022/11/01 09:59:05;;;;;;;12.27;1.23;;;;;;;;;;5023403;28;20397;-77
2022/11/01 10:01:39;;;;;;;2.00;0.65;;;;;;;;;;5023522;28;20096;-77
2022/11/01 10:04:15;;;;;;;2.70;0.88;;;;;;;;;;5023125;28;20037;-81
2022/11/01 10:06:45;;;;;;;4.22;0.60;;;;;;;;;;5023152;28;20037;-79
2022/11/01 10:09:30;;;;;;;1.60;0.70;;;;;;;;;;5004474;28;20523;-79
2022/11/01 10:11:57;;;;;;;0.90;0.77;;;;;;;;;;5038710;28;20436;-78
2022/11/01 10:14:26;;;;;;;2.78;1.30;;;;;;;;;;5021639;28;20041;-80
2022/11/01 10:16:58;;;;;;;1.35;0.90;;;;;;;;;;5023952;28;20493;-78
2022/11/01 10:19:29;;;;;;;3.20;1.02;;;;;;;;;;5021846;28;20456;-77
2022/11/01 10:22:00;;;;;;;4.47;0.93;;;;;;;;;;5022429;28;20572;-78
2022/11/01 10:24:47;;;;;;;7.15;1.10;;;;;;;;;;4989731;28;20038;-78
2022/11/01 10:27:25;;;;;;;3.90;0.85;;;;;;;;;;5016097;28;20614;-77
2022/11/01 10:29:56;;;;;;;1.80;0.77;;;;;;;;;;5032519;28;20029;-77
2022/11/01 10:32:42;;;;;;;1.98;0.90;;;;;;;;;;5007347;28;20564;-77
2022/11/01 10:35:16;;;;;;;2.77;1.20;;;;;;;;;;5022693;28;20042;-77
2022/11/01 10:37:54;;;;;;;2.75;0.90;;;;;;;;;;5020062;28;20087;-76
2022/11/01 10:40:26;;;;;;;1.52;1.05;;;;;;;;;;5023175;28;20057;-77
2022/11/01 10:42:52;;;;;;;1.83;0.80;;;;;;;;;;5008773;28;20512;-78
2022/11/01 10:45:22;;;;;;;2.42;0.90;;;;;;;;;;5020789;28;20057;-77
2022/11/01 10:47:50;;;;;;;5.72;1.13;;;;;;;;;;5025794;28;20527;-77
2022/11/01 10:50:19;;;;;;;2.60;1.23;;;;;;;;;;5026624;28;20025;-78
2022/11/01 10:52:51;;;;;;;1.77;1.05;;;;;;;;;;5020452;28;20049;-77
2022/11/01 10:55:25;;;;;;;1.23;0.88;;;;;;;;;;5024624;28;20056;-77
2022/11/01 10:58:03;;;;;;;2.25;0.90;;;;;;;;;;5019632;28;20041;-77
2022/11/01 11:00:31;;;;;;;3.75;1.20;;;;;;;;;;5022639;28;20492;-78
2022/11/01 11:02:59;;;;;;;1.05;0.90;;;;;;;;;;5023946;28;20061;-78
2022/11/01 11:05:28;;;;;;;1.42;0.93;;;;;;;;;;5021077;28;20148;-78
2022/11/01 11:07:55;;;;;;;2.53;1.17;;;;;;;;;;5023031;28;20170;-78
2022/11/01 11:10:23;;;;;;;2.35;1.00;;;;;;;;;;5020836;28;20034;-77
2022/11/01 11:12:52;;;;;;;2.30;0.90;;;;;;;;;;5022904;28;20033;-79
2022/11/01 11:15:35;;;;;;;4.30;1.30;;;;;;;;;;5022838;28;20142;-78
2022/11/01 11:18:02;;;;;;;4.60;0.82;;;;;;;;;;5019080;28;20354;-77
2022/11/01 11:20:29;;;;;;;1.02;0.82;;;;;;;;;;5020743;28;20029;-77
2022/11/01 11:22:56;;;;;;;1.60;0.90;;;;;;;;;;5021441;28;20049;-76
2022/11/01 11:25:26;;;;;;;2.67;0.73;;;;;;;;;;5007439;28;20040;-77
2022/11/01 11:27:53;;;;;;;1.20;0.88;;;;;;;;;;5023536;28;20055;-78
2022/11/01 11:30:27;;;;;;;2.78;1.00;;;;;;;;;;5019275;28;20533;-76
2022/11/01 11:32:53;;;;;;;1.50;1.10;;;;;;;;;;5018680;28;20496;-78
2022/11/01 11:35:22;;;;;;;2.15;1.00;;;;;;;;;;5019457;28;20034;-78
2022/11/01 11:37:56;;;;;;;1.92;0.63;;;;;;;;;;5021285;28;20037;-77
2022/11/01 11:40:24;;;;;;;1.92;0.95;;;;;;;;;;5020914;28;20034;-77
2022/11/01 11:42:55;;;;;;;1.83;1.00;;;;;;;;;;5021202;28;21287;-78
2022/11/01 11:45:23;;;;;;;1.23;0.70;;;;;;;;;;5019972;28;20034;-77
2022/11/01 11:47:49;;;;;;;1.20;0.85;;;;;;;;;;5021795;28;20037;-78
2022/11/01 11:50:19;;;;;;;1.20;0.80;;;;;;;;;;5021104;28;20514;-78
2022/11/01 11:52:47;;;;;;;3.33;0.75;;;;;;;;;;5019455;28;20049;-76
2022/11/01 11:55:34;;;;;;;2.33;1.05;;;;;;;;;;5019938;28;20487;-78
2022/11/01 11:58:01;;;;;;;1.70;0.98;;;;;;;;;;5019836;28;20046;-77
2022/11/01 12:00:28;;;;;;;1.15;0.85;;;;;;;;;;5007827;28;20033;-78
2022/11/01 12:02:55;;;;;;;1.70;1.00;;;;;;;;;;5021313;28;20040;-78
2022/11/01 12:05:22;;;;;;;1.45;1.00;;;;;;;;;;5019583;28;20034;-77
2022/11/01 12:07:55;;;;;;;4.13;1.13;;;;;;;;;;5019919;28;20421;-77
2022/11/01 12:10:36;;;;;;;1.30;0.90;;;;;;;;;;5019672;28;20049;-77
2022/11/01 12:13:15;;;;;;;1.88;1.20;;;;;;;;;;4984538;28;20538;-78
2022/11/01 12:15:41;;;;;;;1.35;1.00;;;;;;;;;;5019014;28;20509;-78
2022/11/01 12:18:17;;;;;;;1.73;1.00;;;;;;;;;;5018946;28;20415;-77
2022/11/01 12:20:48;;;;;;;2.25;0.90;;;;;;;;;;5020809;28;20496;-79
2022/11/01 12:23:25;;;;;;;3.83;1.15;;;;;;;;;;5023399;28;20052;-76
2022/11/01 12:25:52;;;;;;;1.10;0.93;;;;;;;;;;5018575;28;20042;-78
2022/11/01 12:28:25;;;;;;;5.40;1.13;;;;;;;;;;5023633;28;21406;-78
2022/11/01 12:30:56;;;;;;;2.67;1.00;;;;;;;;;;5034870;28;20037;-80
2022/11/01 12:33:24;;;;;;;3.78;0.90;;;;;;;;;;5018330;28;20038;-80
2022/11/01 12:35:53;;;;;;;2.95;1.10;;;;;;;;;;5020856;28;20045;-79
2022/11/01 12:38:22;;;;;;;2.33;0.70;;;;;;;;;;5023862;28;20045;-78
2022/11/01 12:40:49;;;;;;;2.10;0.93;;;;;;;;;;5029570;28;20475;-78
2022/11/01 12:43:36;;;;;;;3.60;1.48;;;;;;;;;;5026742;28;20451;-78
2022/11/01 12:46:12;;;;;;;2.33;1.00;;;;;;;;;;4968646;28;20046;-78
2022/11/01 12:48:51;;;;;;;2.53;0.98;;;;;;;;;;4965818;28;20068;-78
2022/11/01 12:51:20;;;;;;;3.13;0.90;;;;;;;;;;4966877;28;20081;-77
2022/11/01 12:53:54;;;;;;;2.15;0.98;;;;;;;;;;4963163;28;20047;-77
2022/11/01 12:56:26;;;;;;;1.52;0.70;;;;;;;;;;4962911;28;20037;-80
2022/11/01 12:58:59;;;;;;;1.30;1.15;;;;;;;;;;4953625;28;20138;-77
2022/11/01 13:02:00;;;;;;;2.70;0.88;;;;;;;;;;4971935;28;20071;-80
2022/11/01 13:04:34;;;;;;;1.25;0.88;;;;;;;;;;4961645;28;20530;-78
2022/11/01 13:07:00;;;;;;;2.15;1.05;;;;;;;;;;4943000;28;20164;-78
2022/11/01 13:09:29;;;;;;;3.28;1.17;;;;;;;;;;4958446;28;20027;-78
2022/11/01 13:12:08;;;;;;;3.38;1.00;;;;;;;;;;4959332;28;20082;-79
2022/11/01 13:14:48;;;;;;;3.13;0.98;;;;;;;;;;4962021;28;20030;-78
2022/11/01 13:17:29;;;;;;;1.58;1.25;;;;;;;;;;4960121;28;20073;-76
2022/11/01 13:20:16;;;;;;;1.65;0.90;;;;;;;;;;4959634;28;20037;-80
2022/11/01 13:22:51;;;;;;;1.38;0.70;;;;;;;;;;4922075;28;20748;-80
2022/11/01 13:25:22;;;;;;;3.00;1.05;;;;;;;;;;4968317;28;20478;-84
2022/11/01 13:28:02;;;;;;;4.57;1.00;;;;;;;;;;4968731;28;20601;-82
2022/11/01 13:30:29;;;;;;;2.50;1.00;;;;;;;;;;4952028;28;20062;-81
2022/11/01 13:33:02;;;;;;;3.35;1.00;;;;;;;;;;4952411;28;20026;-81
2022/11/01 13:35:28;;;;;;;3.05;1.40;;;;;;;;;;4949049;28;20483;-80
2022/11/01 13:38:13;;;;;;;3.40;1.50;;;;;;;;;;4965094;28;20680;-83
2022/11/01 13:40:42;;;;;;;4.40;2.50;;;;;;;;;;4963765;28;21209;-84
2022/11/01 13:43:17;;;;;;;2.63;1.70;;;;;;;;;;4963963;28;20031;-83
2022/11/01 13:45:43;;;;;;;;;;;;;;;;;;4948664;28;20034;-82
2022/11/01 13:48:15;;;;;;;3.50;2.22;;;;;;;;;;4948706;28;19967;-82
2022/11/01 13:50:51;;;;;;;4.07;2.13;;;;;;;;;;4965512;28;20062;-85
2022/11/01 13:53:20;;;;;;;4.82;2.42;;;;;;;;;;4967269;28;20057;-84
2022/11/01 13:55:52;;;;;;;3.88;2.10;;;;;;;;;;4932847;28;20581;-83
2022/11/01 13:58:20;;;;;;;5.20;2.63;;;;;;;;;;4963678;28;20046;-83
2022/11/01 14:00:50;;;;;;;5.70;2.63;;;;;;;;;;4991649;28;20041;-82
2022/11/01 14:03:20;;;;;;;4.53;2.35;;;;;;;;;;5002422;28;20038;-82
2022/11/01 14:05:47;;;;;;;5.43;2.25;;;;;;;;;;5006873;28;20030;-81
2022/11/01 14:08:15;;;;;;;7.18;2.80;;;;;;;;;;4986517;28;20457;-82
2022/11/01 14:10:45;;;;;;;4.90;2.60;;;;;;;;;;5002900;28;20034;-87
2022/11/01 14:13:16;;;;;;;6.03;2.90;;;;;;;;;;5001940;28;20041;-84
2022/11/01 14:15:54;;;;;;;5.55;2.80;;;;;;;;;;5016926;28;20041;-84
2022/11/01 14:18:20;;;;;;;3.85;2.17;;;;;;;;;;4989298;28;20050;-84
2022/11/01 14:20:46;;;;;;;6.63;2.58;;;;;;;;;;5007149;28;20533;-83
2022/11/01 14:23:28;;;;;;;3.45;2.10;;;;;;;;;;5003487;28;20065;-83
2022/11/01 14:26:13;;;;;;;3.75;2.40;;;;;;;;;;5003148;28;20452;-82
2022/11/01 14:28:43;;;;;;;4.15;2.10;;;;;;;;;;5004033;28;20034;-80
2022/11/01 14:31:10;;;;;;;6.75;2.78;;;;;;;;;;5003451;28;20038;-81
2022/11/01 14:33:36;;;;;;;4.35;2.15;;;;;;;;;;5002794;28;20419;-82
2022/11/01 14:36:03;;;;;;;7.47;2.20;;;;;;;;;;5002693;28;20042;-80
2022/11/01 14:38:35;;;;;;;5.30;2.30;;;;;;;;;;5003596;28;20038;-81
2022/11/01 14:41:01;;;;;;;2.92;2.03;;;;;;;;;;5000015;28;20613;-80
2022/11/01 14:43:34;;;;;;;4.35;2.70;;;;;;;;;;5003947;28;20138;-81
2022/11/01 14:46:02;;;;;;;4.55;1.98;;;;;;;;;;5003367;28;20176;-80
2022/11/01 14:48:43;;;;;;;4.40;2.22;;;;;;;;;;5001419;28;20030;-81
2022/11/01 14:51:39;;;;;;;4.53;2.47;;;;;;;;;;5002517;28;20038;-80
2022/11/01 14:54:17;;;;;;;3.78;1.83;;;;;;;;;;4996752;28;20045;-78
2022/11/01 14:56:48;;;;;;;4.43;1.90;;;;;;;;;;5021565;28;20107;-75
2022/11/01 14:59:22;;;;;;;3.08;1.90;;;;;;;;;;5022749;28;20029;-78
2022/11/01 15:01:49;;;;;;;4.20;1.90;;;;;;;;;;5022931;28;20037;-80